sensor_id;sensor_type;location;lat;lon;timestamp;pressure;altitude;pressure_sealevel;temperature;humidity
64841;BME280;51307;52.162;7.560;2023-04-27T00:01:11;101525.84;;;6.54;48.02
64841;BME280;51307;52.162;7.560;2023-04-27T00:03:37;101527.59;;;6.43;48.15
64841;BME280;51307;52.162;7.560;2023-04-27T00:06:03;101529.28;;;6.32;48.31
64841;BME280;51307;52.162;7.560;2023-04-27T00:08:29;101532.09;;;6.18;48.60
64841;BME280;51307;52.162;7.560;2023-04-27T00:10:55;101525.09;;;6.17;49.05
64841;BME280;51307;52.162;7.560;2023-04-27T00:13:21;101525.09;;;6.17;48.71
64841;BME280;51307;52.162;7.560;2023-04-27T00:15:46;101523.06;;;6.20;48.66
64841;BME280;51307;52.162;7.560;2023-04-27T00:18:14;101525.81;;;6.19;49.01
64841;BME280;51307;52.162;7.560;2023-04-27T00:20:39;101530.13;;;6.09;49.19
64841;BME280;51307;52.162;7.560;2023-04-27T00:23:05;101522.91;;;6.11;49.12
64841;BME280;51307;52.162;7.560;2023-04-27T00:25:31;101523.84;;;6.10;49.55
64841;BME280;51307;52.162;7.560;2023-04-27T00:27:57;101527.75;;;6.17;49.95
64841;BME280;51307;52.162;7.560;2023-04-27T00:30:23;101528.22;;;6.11;49.86
64841;BME280;51307;52.162;7.560;2023-04-27T00:32:48;101527.56;;;6.07;50.00
64841;BME280;51307;52.162;7.560;2023-04-27T00:35:14;101536.38;;;6.07;50.09
64841;BME280;51307;52.162;7.560;2023-04-27T00:37:39;101528.88;;;6.01;49.83
64841;BME280;51307;52.162;7.560;2023-04-27T00:40:05;101525.94;;;5.93;50.08
64841;BME280;51307;52.162;7.560;2023-04-27T00:42:33;101536.66;;;5.92;50.06
64841;BME280;51307;52.162;7.560;2023-04-27T00:44:58;101534.06;;;5.79;50.59
64841;BME280;51307;52.162;7.560;2023-04-27T00:47:29;101537.13;;;5.85;50.33
64841;BME280;51307;52.162;7.560;2023-04-27T00:49:54;101539.38;;;5.79;50.39
64841;BME280;51307;52.162;7.560;2023-04-27T00:52:20;101540.91;;;5.94;50.32
64841;BME280;51307;52.162;7.560;2023-04-27T00:54:48;101535.25;;;5.75;50.65
64841;BME280;51307;52.162;7.560;2023-04-27T00:57:15;101547.09;;;5.45;51.25
64841;BME280;51307;52.162;7.560;2023-04-27T00:59:41;101540.63;;;5.49;51.51
64841;BME280;51307;52.162;7.560;2023-04-27T01:02:06;101554.31;;;5.43;51.45
64841;BME280;51307;52.162;7.560;2023-04-27T01:04:35;101541.63;;;5.59;51.24
64841;BME280;51307;52.162;7.560;2023-04-27T01:07:02;101549.22;;;5.39;51.79
64841;BME280;51307;52.162;7.560;2023-04-27T01:09:27;101547.16;;;5.56;51.51
64841;BME280;51307;52.162;7.560;2023-04-27T01:11:53;101542.28;;;5.63;51.63
64841;BME280;51307;52.162;7.560;2023-04-27T01:14:18;101540.03;;;5.69;51.37
64841;BME280;51307;52.162;7.560;2023-04-27T01:16:44;101549.06;;;5.54;51.80
64841;BME280;51307;52.162;7.560;2023-04-27T01:19:10;101552.91;;;5.50;51.93
64841;BME280;51307;52.162;7.560;2023-04-27T01:21:38;101546.00;;;5.47;52.08
64841;BME280;51307;52.162;7.560;2023-04-27T01:24:07;101553.34;;;5.44;51.93
64841;BME280;51307;52.162;7.560;2023-04-27T01:26:33;101551.00;;;5.39;52.10
64841;BME280;51307;52.162;7.560;2023-04-27T01:28:58;101556.13;;;5.29;52.44
64841;BME280;51307;52.162;7.560;2023-04-27T01:31:24;101554.00;;;5.34;52.31
64841;BME280;51307;52.162;7.560;2023-04-27T01:33:50;101565.03;;;5.28;52.40
64841;BME280;51307;52.162;7.560;2023-04-27T01:36:15;101559.28;;;5.21;52.45
64841;BME280;51307;52.162;7.560;2023-04-27T01:38:41;101560.47;;;5.17;52.55
64841;BME280;51307;52.162;7.560;2023-04-27T01:41:07;101556.03;;;5.18;52.56
64841;BME280;51307;52.162;7.560;2023-04-27T01:43:36;101553.69;;;5.13;52.67
64841;BME280;51307;52.162;7.560;2023-04-27T01:46:09;101559.09;;;5.12;53.03
64841;BME280;51307;52.162;7.560;2023-04-27T01:48:36;101566.41;;;4.95;53.49
64841;BME280;51307;52.162;7.560;2023-04-27T01:51:02;101570.13;;;5.05;53.20
64841;BME280;51307;52.162;7.560;2023-04-27T01:53:28;101573.72;;;4.79;53.76
64841;BME280;51307;52.162;7.560;2023-04-27T01:55:53;101571.38;;;4.87;53.63
64841;BME280;51307;52.162;7.560;2023-04-27T01:58:19;101575.00;;;4.86;53.29
64841;BME280;51307;52.162;7.560;2023-04-27T02:00:45;101581.06;;;5.01;53.23
64841;BME280;51307;52.162;7.560;2023-04-27T02:03:10;101579.84;;;4.92;53.49
64841;BME280;51307;52.162;7.560;2023-04-27T02:05:36;101577.53;;;4.87;53.70
64841;BME280;51307;52.162;7.560;2023-04-27T02:08:02;101570.84;;;4.82;53.39
64841;BME280;51307;52.162;7.560;2023-04-27T02:10:28;101575.50;;;4.78;53.84
64841;BME280;51307;52.162;7.560;2023-04-27T02:12:53;101567.75;;;4.88;53.29
64841;BME280;51307;52.162;7.560;2023-04-27T02:15:19;101579.03;;;4.79;53.82
64841;BME280;51307;52.162;7.560;2023-04-27T02:17:44;101583.78;;;4.74;54.27
64841;BME280;51307;52.162;7.560;2023-04-27T02:20:11;101588.53;;;4.68;54.19
64841;BME280;51307;52.162;7.560;2023-04-27T02:22:40;101595.13;;;4.76;54.07
64841;BME280;51307;52.162;7.560;2023-04-27T02:25:07;101594.94;;;4.79;54.03
64841;BME280;51307;52.162;7.560;2023-04-27T02:27:36;101596.78;;;4.64;54.50
64841;BME280;51307;52.162;7.560;2023-04-27T02:32:31;101587.25;;;4.61;54.39
64841;BME280;51307;52.162;7.560;2023-04-27T02:34:56;101584.06;;;4.56;54.17
64841;BME280;51307;52.162;7.560;2023-04-27T02:37:22;101581.97;;;4.47;54.47
64841;BME280;51307;52.162;7.560;2023-04-27T02:39:47;101590.53;;;4.37;54.72
64841;BME280;51307;52.162;7.560;2023-04-27T02:42:12;101592.22;;;4.38;54.61
64841;BME280;51307;52.162;7.560;2023-04-27T02:44:38;101597.97;;;4.45;54.37
64841;BME280;51307;52.162;7.560;2023-04-27T02:47:04;101592.22;;;4.38;54.36
64841;BME280;51307;52.162;7.560;2023-04-27T02:49:30;101582.03;;;4.32;54.56
64841;BME280;51307;52.162;7.560;2023-04-27T02:51:56;101578.44;;;4.33;54.31
64841;BME280;51307;52.162;7.560;2023-04-27T02:54:21;101575.13;;;4.30;54.62
64841;BME280;51307;52.162;7.560;2023-04-27T02:56:47;101571.19;;;4.22;54.69
64841;BME280;51307;52.162;7.560;2023-04-27T02:59:12;101569.72;;;4.31;54.43
64841;BME280;51307;52.162;7.560;2023-04-27T03:01:38;101572.22;;;4.20;54.81
64841;BME280;51307;52.162;7.560;2023-04-27T03:04:03;101567.22;;;4.15;54.57
64841;BME280;51307;52.162;7.560;2023-04-27T03:06:29;101554.50;;;4.08;54.95
64841;BME280;51307;52.162;7.560;2023-04-27T03:08:54;101553.84;;;4.04;54.90
64841;BME280;51307;52.162;7.560;2023-04-27T03:11:20;101552.03;;;4.04;54.77
64841;BME280;51307;52.162;7.560;2023-04-27T03:13:45;101556.41;;;3.91;55.04
64841;BME280;51307;52.162;7.560;2023-04-27T03:16:11;101559.34;;;3.86;55.02
64841;BME280;51307;52.162;7.560;2023-04-27T03:18:37;101561.53;;;3.94;54.90
64841;BME280;51307;52.162;7.560;2023-04-27T03:21:12;101561.06;;;3.87;54.99
64841;BME280;51307;52.162;7.560;2023-04-27T03:23:38;101558.63;;;3.70;55.34
64841;BME280;51307;52.162;7.560;2023-04-27T03:26:11;101567.16;;;3.75;55.35
64841;BME280;51307;52.162;7.560;2023-04-27T03:28:38;101559.00;;;3.78;54.95
64841;BME280;51307;52.162;7.560;2023-04-27T03:31:07;101562.22;;;3.83;54.97
64841;BME280;51307;52.162;7.560;2023-04-27T03:33:33;101563.34;;;3.79;55.13
64841;BME280;51307;52.162;7.560;2023-04-27T03:35:59;101560.34;;;3.42;56.04
64841;BME280;51307;52.162;7.560;2023-04-27T03:38:25;101568.66;;;3.65;55.69
64841;BME280;51307;52.162;7.560;2023-04-27T03:40:52;101557.69;;;3.71;54.92
64841;BME280;51307;52.162;7.560;2023-04-27T03:43:19;101559.47;;;3.70;55.17
64841;BME280;51307;52.162;7.560;2023-04-27T03:45:45;101551.53;;;3.56;55.33
64841;BME280;51307;52.162;7.560;2023-04-27T03:48:11;101552.88;;;3.63;55.13
64841;BME280;51307;52.162;7.560;2023-04-27T03:50:36;101556.66;;;3.59;55.29
64841;BME280;51307;52.162;7.560;2023-04-27T03:53:02;101558.75;;;3.54;55.39
64841;BME280;51307;52.162;7.560;2023-04-27T03:55:27;101564.72;;;3.43;55.64
64841;BME280;51307;52.162;7.560;2023-04-27T03:57:53;101566.13;;;3.49;55.58
64841;BME280;51307;52.162;7.560;2023-04-27T04:00:19;101568.84;;;3.47;55.48
64841;BME280;51307;52.162;7.560;2023-04-27T04:02:44;101576.03;;;3.45;55.40
64841;BME280;51307;52.162;7.560;2023-04-27T04:05:10;101576.13;;;3.44;55.32
64841;BME280;51307;52.162;7.560;2023-04-27T04:07:36;101575.84;;;3.34;55.49
64841;BME280;51307;52.162;7.560;2023-04-27T04:10:03;101576.03;;;3.31;55.79
64841;BME280;51307;52.162;7.560;2023-04-27T04:12:28;101582.19;;;3.46;55.35
64841;BME280;51307;52.162;7.560;2023-04-27T04:14:54;101589.56;;;3.41;55.50
64841;BME280;51307;52.162;7.560;2023-04-27T04:17:20;101591.91;;;3.45;55.51
64841;BME280;51307;52.162;7.560;2023-04-27T04:19:46;101590.00;;;3.33;55.53
64841;BME280;51307;52.162;7.560;2023-04-27T04:22:11;101589.66;;;3.39;55.54
64841;BME280;51307;52.162;7.560;2023-04-27T04:24:37;101594.84;;;3.41;55.60
64841;BME280;51307;52.162;7.560;2023-04-27T04:27:04;101591.16;;;3.29;56.15
64841;BME280;51307;52.162;7.560;2023-04-27T04:29:30;101600.97;;;3.41;55.61
64841;BME280;51307;52.162;7.560;2023-04-27T04:31:55;101594.06;;;3.38;55.58
64841;BME280;51307;52.162;7.560;2023-04-27T04:34:21;101601.84;;;3.42;55.30
64841;BME280;51307;52.162;7.560;2023-04-27T04:36:47;101608.44;;;3.49;55.24
64841;BME280;51307;52.162;7.560;2023-04-27T04:39:16;101600.22;;;3.39;55.32
64841;BME280;51307;52.162;7.560;2023-04-27T04:41:44;101608.75;;;3.44;55.46
64841;BME280;51307;52.162;7.560;2023-04-27T04:44:09;101604.88;;;3.50;55.33
64841;BME280;51307;52.162;7.560;2023-04-27T04:46:35;101612.72;;;3.51;55.25
64841;BME280;51307;52.162;7.560;2023-04-27T04:49:01;101616.28;;;3.50;55.38
64841;BME280;51307;52.162;7.560;2023-04-27T04:51:27;101615.94;;;3.57;55.44
64841;BME280;51307;52.162;7.560;2023-04-27T04:53:52;101608.56;;;3.62;55.37
64841;BME280;51307;52.162;7.560;2023-04-27T04:56:18;101615.53;;;3.63;55.39
64841;BME280;51307;52.162;7.560;2023-04-27T04:58:44;101615.06;;;3.56;55.86
64841;BME280;51307;52.162;7.560;2023-04-27T05:01:09;101618.47;;;3.58;55.54
64841;BME280;51307;52.162;7.560;2023-04-27T05:03:35;101619.50;;;3.55;56.20
64841;BME280;51307;52.162;7.560;2023-04-27T05:06:00;101612.25;;;3.59;56.20
64841;BME280;51307;52.162;7.560;2023-04-27T05:08:26;101619.88;;;3.64;56.51
64841;BME280;51307;52.162;7.560;2023-04-27T05:10:52;101619.13;;;3.76;56.06
64841;BME280;51307;52.162;7.560;2023-04-27T05:13:19;101617.44;;;3.75;56.17
64841;BME280;51307;52.162;7.560;2023-04-27T05:15:44;101621.13;;;3.72;56.45
64841;BME280;51307;52.162;7.560;2023-04-27T05:18:11;101633.19;;;3.91;56.47
64841;BME280;51307;52.162;7.560;2023-04-27T05:20:37;101618.91;;;3.94;56.35
64841;BME280;51307;52.162;7.560;2023-04-27T05:23:03;101620.63;;;3.95;56.48
64841;BME280;51307;52.162;7.560;2023-04-27T05:25:30;101627.16;;;4.03;56.35
64841;BME280;51307;52.162;7.560;2023-04-27T05:27:55;101627.88;;;4.05;56.24
64841;BME280;51307;52.162;7.560;2023-04-27T05:30:21;101633.59;;;4.41;55.59
64841;BME280;51307;52.162;7.560;2023-04-27T05:32:46;101631.91;;;4.26;56.04
64841;BME280;51307;52.162;7.560;2023-04-27T05:35:12;101638.31;;;4.36;56.09
64841;BME280;51307;52.162;7.560;2023-04-27T05:37:37;101639.41;;;4.46;56.24
64841;BME280;51307;52.162;7.560;2023-04-27T05:40:03;101641.44;;;4.43;56.34
64841;BME280;51307;52.162;7.560;2023-04-27T05:42:34;101634.97;;;4.61;56.00
64841;BME280;51307;52.162;7.560;2023-04-27T05:45:00;101637.31;;;4.66;55.65
64841;BME280;51307;52.162;7.560;2023-04-27T05:47:26;101641.22;;;4.73;56.07
64841;BME280;51307;52.162;7.560;2023-04-27T05:49:52;101643.50;;;4.92;55.49
64841;BME280;51307;52.162;7.560;2023-04-27T05:52:18;101648.47;;;4.84;55.92
64841;BME280;51307;52.162;7.560;2023-04-27T05:54:48;101647.25;;;4.89;55.92
64841;BME280;51307;52.162;7.560;2023-04-27T05:57:14;101647.56;;;4.98;55.62
64841;BME280;51307;52.162;7.560;2023-04-27T05:59:40;101647.25;;;5.02;55.50
64841;BME280;51307;52.162;7.560;2023-04-27T06:02:06;101652.59;;;5.15;55.50
64841;BME280;51307;52.162;7.560;2023-04-27T06:04:32;101651.31;;;5.21;55.16
64841;BME280;51307;52.162;7.560;2023-04-27T06:06:58;101652.47;;;5.30;55.23
64841;BME280;51307;52.162;7.560;2023-04-27T06:09:24;101655.38;;;5.39;54.94
64841;BME280;51307;52.162;7.560;2023-04-27T06:11:50;101655.69;;;5.48;55.04
64841;BME280;51307;52.162;7.560;2023-04-27T06:14:15;101647.19;;;5.68;54.46
64841;BME280;51307;52.162;7.560;2023-04-27T06:16:41;101646.88;;;5.73;54.51
64841;BME280;51307;52.162;7.560;2023-04-27T06:19:07;101652.41;;;5.57;54.85
64841;BME280;51307;52.162;7.560;2023-04-27T06:21:33;101640.59;;;5.87;54.12
64841;BME280;51307;52.162;7.560;2023-04-27T06:23:59;101651.63;;;5.94;54.20
64841;BME280;51307;52.162;7.560;2023-04-27T06:26:25;101646.38;;;6.18;53.71
64841;BME280;51307;52.162;7.560;2023-04-27T06:28:51;101645.59;;;6.29;53.27
64841;BME280;51307;52.162;7.560;2023-04-27T06:31:16;101647.91;;;6.33;53.06
64841;BME280;51307;52.162;7.560;2023-04-27T06:33:42;101650.22;;;6.38;53.07
64841;BME280;51307;52.162;7.560;2023-04-27T06:36:07;101651.16;;;6.50;52.54
64841;BME280;51307;52.162;7.560;2023-04-27T06:38:33;101654.25;;;6.44;52.77
64841;BME280;51307;52.162;7.560;2023-04-27T06:40:59;101652.22;;;6.47;52.42
64841;BME280;51307;52.162;7.560;2023-04-27T06:43:24;101649.56;;;6.47;52.68
64841;BME280;51307;52.162;7.560;2023-04-27T06:45:50;101650.91;;;6.53;52.02
64841;BME280;51307;52.162;7.560;2023-04-27T06:48:16;101652.66;;;6.65;51.34
64841;BME280;51307;52.162;7.560;2023-04-27T06:50:42;101654.00;;;6.71;51.09
64841;BME280;51307;52.162;7.560;2023-04-27T06:53:07;101654.53;;;6.76;51.25
64841;BME280;51307;52.162;7.560;2023-04-27T06:55:33;101652.03;;;6.86;51.38
64841;BME280;51307;52.162;7.560;2023-04-27T06:57:59;101653.06;;;6.72;51.74
64841;BME280;51307;52.162;7.560;2023-04-27T07:00:25;101657.44;;;6.97;51.14
64841;BME280;51307;52.162;7.560;2023-04-27T07:02:51;101648.69;;;6.95;51.33
64841;BME280;51307;52.162;7.560;2023-04-27T07:05:17;101656.16;;;6.90;50.58
64841;BME280;51307;52.162;7.560;2023-04-27T07:07:43;101653.13;;;7.07;50.38
64841;BME280;51307;52.162;7.560;2023-04-27T07:10:09;101648.78;;;7.18;50.32
64841;BME280;51307;52.162;7.560;2023-04-27T07:12:36;101655.28;;;7.02;50.10
64841;BME280;51307;52.162;7.560;2023-04-27T07:15:01;101652.41;;;7.17;50.13
64841;BME280;51307;52.162;7.560;2023-04-27T07:17:28;101651.19;;;7.10;49.94
64841;BME280;51307;52.162;7.560;2023-04-27T07:19:54;101654.59;;;7.12;50.02
64841;BME280;51307;52.162;7.560;2023-04-27T07:22:20;101648.78;;;7.18;49.33
64841;BME280;51307;52.162;7.560;2023-04-27T07:24:46;101650.47;;;7.19;49.26
64841;BME280;51307;52.162;7.560;2023-04-27T07:27:11;101651.19;;;7.21;49.52
64841;BME280;51307;52.162;7.560;2023-04-27T07:29:38;101646.50;;;7.24;49.33
64841;BME280;51307;52.162;7.560;2023-04-27T07:32:05;101645.03;;;7.32;49.64
64841;BME280;51307;52.162;7.560;2023-04-27T07:34:30;101647.00;;;7.41;49.31
64841;BME280;51307;52.162;7.560;2023-04-27T07:36:56;101643.13;;;7.45;49.54
64841;BME280;51307;52.162;7.560;2023-04-27T07:39:22;101648.94;;;7.50;48.81
64841;BME280;51307;52.162;7.560;2023-04-27T07:41:48;101642.66;;;7.51;47.85
64841;BME280;51307;52.162;7.560;2023-04-27T07:44:19;101638.91;;;7.43;48.33
64841;BME280;51307;52.162;7.560;2023-04-27T07:46:46;101644.25;;;7.54;48.91
64841;BME280;51307;52.162;7.560;2023-04-27T07:49:16;101636.50;;;7.62;49.03
64841;BME280;51307;52.162;7.560;2023-04-27T07:51:41;101643.41;;;7.65;48.31
64841;BME280;51307;52.162;7.560;2023-04-27T07:54:07;101650.56;;;7.75;47.31
64841;BME280;51307;52.162;7.560;2023-04-27T07:56:33;101652.50;;;7.85;47.31
64841;BME280;51307;52.162;7.560;2023-04-27T07:58:58;101650.53;;;7.87;47.55
64841;BME280;51307;52.162;7.560;2023-04-27T08:01:24;101637.81;;;7.68;47.44
64841;BME280;51307;52.162;7.560;2023-04-27T08:03:49;101635.41;;;7.87;47.69
64841;BME280;51307;52.162;7.560;2023-04-27T08:06:17;101637.34;;;7.97;47.06
64841;BME280;51307;52.162;7.560;2023-04-27T08:08:43;101645.00;;;7.90;47.34
64841;BME280;51307;52.162;7.560;2023-04-27T08:11:11;101640.00;;;7.97;46.50
64841;BME280;51307;52.162;7.560;2023-04-27T08:13:37;101637.56;;;7.94;45.30
64841;BME280;51307;52.162;7.560;2023-04-27T08:16:02;101641.59;;;7.99;45.45
64841;BME280;51307;52.162;7.560;2023-04-27T08:18:28;101648.47;;;8.13;44.33
64841;BME280;51307;52.162;7.560;2023-04-27T08:20:54;101644.97;;;8.13;44.89
64841;BME280;51307;52.162;7.560;2023-04-27T08:23:19;101640.56;;;8.23;44.35
64841;BME280;51307;52.162;7.560;2023-04-27T08:25:45;101637.78;;;8.24;44.18
64841;BME280;51307;52.162;7.560;2023-04-27T08:28:12;101632.22;;;8.28;44.12
64841;BME280;51307;52.162;7.560;2023-04-27T08:30:37;101630.25;;;8.30;44.94
64841;BME280;51307;52.162;7.560;2023-04-27T08:33:03;101631.59;;;8.24;43.72
64841;BME280;51307;52.162;7.560;2023-04-27T08:35:28;101636.47;;;8.30;44.16
64841;BME280;51307;52.162;7.560;2023-04-27T08:37:54;101634.00;;;8.27;43.37
64841;BME280;51307;52.162;7.560;2023-04-27T08:40:20;101636.56;;;8.29;42.13
64841;BME280;51307;52.162;7.560;2023-04-27T08:42:58;101637.03;;;8.34;42.46
64841;BME280;51307;52.162;7.560;2023-04-27T08:45:26;101636.69;;;8.27;42.91
64841;BME280;51307;52.162;7.560;2023-04-27T08:47:52;101636.53;;;8.40;43.12
64841;BME280;51307;52.162;7.560;2023-04-27T08:50:18;101645.25;;;8.42;40.56
64841;BME280;51307;52.162;7.560;2023-04-27T08:52:47;101635.41;;;8.54;41.84
64841;BME280;51307;52.162;7.560;2023-04-27T08:55:13;101637.72;;;8.47;42.11
64841;BME280;51307;52.162;7.560;2023-04-27T08:57:39;101639.03;;;8.53;42.06
64841;BME280;51307;52.162;7.560;2023-04-27T09:00:05;101642.16;;;8.58;40.68
64841;BME280;51307;52.162;7.560;2023-04-27T09:02:43;101641.16;;;8.70;42.07
64841;BME280;51307;52.162;7.560;2023-04-27T09:05:15;101642.28;;;8.68;40.85
64841;BME280;51307;52.162;7.560;2023-04-27T09:07:40;101639.00;;;8.64;40.54
64841;BME280;51307;52.162;7.560;2023-04-27T09:10:06;101635.38;;;8.65;40.97
64841;BME280;51307;52.162;7.560;2023-04-27T09:12:32;101636.09;;;8.67;41.42
64841;BME280;51307;52.162;7.560;2023-04-27T09:14:59;101642.66;;;8.63;40.92
64841;BME280;51307;52.162;7.560;2023-04-27T09:17:27;101641.81;;;8.95;40.46
64841;BME280;51307;52.162;7.560;2023-04-27T09:20:07;101634.78;;;8.94;40.22
64841;BME280;51307;52.162;7.560;2023-04-27T09:22:51;101638.19;;;8.96;42.16
64841;BME280;51307;52.162;7.560;2023-04-27T09:25:30;101642.94;;;9.14;39.95
64841;BME280;51307;52.162;7.560;2023-04-27T09:27:58;101632.63;;;9.09;39.81
64841;BME280;51307;52.162;7.560;2023-04-27T09:30:24;101634.84;;;9.25;38.92
64841;BME280;51307;52.162;7.560;2023-04-27T09:32:50;101630.81;;;9.31;38.70
64841;BME280;51307;52.162;7.560;2023-04-27T09:35:22;101627.31;;;9.30;37.60
64841;BME280;51307;52.162;7.560;2023-04-27T09:37:49;101625.41;;;9.21;37.69
64841;BME280;51307;52.162;7.560;2023-04-27T09:40:18;101634.84;;;9.25;37.48
64841;BME280;51307;52.162;7.560;2023-04-27T09:42:45;101621.69;;;9.33;37.49
64841;BME280;51307;52.162;7.560;2023-04-27T09:45:11;101621.00;;;9.31;38.34
64841;BME280;51307;52.162;7.560;2023-04-27T09:47:37;101621.81;;;9.32;37.08
64841;BME280;51307;52.162;7.560;2023-04-27T09:50:04;101615.41;;;9.44;36.04
64841;BME280;51307;52.162;7.560;2023-04-27T09:52:31;101618.50;;;9.39;35.81
64841;BME280;51307;52.162;7.560;2023-04-27T09:54:57;101614.13;;;9.38;36.39
64841;BME280;51307;52.162;7.560;2023-04-27T09:57:38;101605.63;;;9.54;35.70
64841;BME280;51307;52.162;7.560;2023-04-27T10:03:23;101605.41;;;9.67;38.03
64841;BME280;51307;52.162;7.560;2023-04-27T10:08:49;101599.81;;;9.70;36.50
64841;BME280;51307;52.162;7.560;2023-04-27T10:11:16;101587.41;;;9.69;35.61
64841;BME280;51307;52.162;7.560;2023-04-27T10:13:54;101591.09;;;9.78;36.52
64841;BME280;51307;52.162;7.560;2023-04-27T10:16:20;101593.22;;;9.74;37.14
64841;BME280;51307;52.162;7.560;2023-04-27T10:18:55;101599.25;;;9.76;36.80
64841;BME280;51307;52.162;7.560;2023-04-27T10:21:21;101600.41;;;9.84;37.77
64841;BME280;51307;52.162;7.560;2023-04-27T10:23:50;101607.19;;;9.88;36.47
64841;BME280;51307;52.162;7.560;2023-04-27T10:26:23;101595.66;;;9.97;36.00
64841;BME280;51307;52.162;7.560;2023-04-27T10:29:03;101592.84;;;9.99;36.67
64841;BME280;51307;52.162;7.560;2023-04-27T10:31:30;101594.66;;;9.88;35.29
64841;BME280;51307;52.162;7.560;2023-04-27T10:34:09;101593.38;;;9.83;33.49
64841;BME280;51307;52.162;7.560;2023-04-27T10:36:38;101587.41;;;9.69;33.65
64841;BME280;51307;52.162;7.560;2023-04-27T10:39:18;101582.09;;;9.79;34.76
64841;BME280;51307;52.162;7.560;2023-04-27T10:41:52;101581.88;;;10.12;35.20
64841;BME280;51307;52.162;7.560;2023-04-27T10:44:27;101582.03;;;10.20;36.53
64841;BME280;51307;52.162;7.560;2023-04-27T10:46:55;101581.94;;;10.21;34.90
64841;BME280;51307;52.162;7.560;2023-04-27T10:49:22;101579.53;;;10.28;36.71
64841;BME280;51307;52.162;7.560;2023-04-27T10:51:50;101567.16;;;10.37;37.51
64841;BME280;51307;52.162;7.560;2023-04-27T10:54:15;101561.81;;;10.47;37.52
64841;BME280;51307;52.162;7.560;2023-04-27T10:56:41;101563.06;;;10.42;37.03
64841;BME280;51307;52.162;7.560;2023-04-27T10:59:07;101557.75;;;10.52;36.77
64841;BME280;51307;52.162;7.560;2023-04-27T11:01:33;101554.78;;;10.65;37.22
64841;BME280;51307;52.162;7.560;2023-04-27T11:04:00;101549.00;;;10.40;34.63
64841;BME280;51307;52.162;7.560;2023-04-27T11:06:27;101541.81;;;10.51;35.04
64841;BME280;51307;52.162;7.560;2023-04-27T11:08:54;101546.34;;;10.70;36.47
64841;BME280;51307;52.162;7.560;2023-04-27T11:11:21;101544.78;;;10.77;36.42
64841;BME280;51307;52.162;7.560;2023-04-27T11:13:48;101537.69;;;10.86;36.36
64841;BME280;51307;52.162;7.560;2023-04-27T11:16:16;101540.38;;;10.86;35.89
64841;BME280;51307;52.162;7.560;2023-04-27T11:18:43;101545.72;;;10.96;35.69
64841;BME280;51307;52.162;7.560;2023-04-27T11:21:14;101539.66;;;11.03;36.33
64841;BME280;51307;52.162;7.560;2023-04-27T11:23:40;101543.31;;;11.02;35.90
64841;BME280;51307;52.162;7.560;2023-04-27T11:26:19;101537.66;;;11.05;35.43
64841;BME280;51307;52.162;7.560;2023-04-27T11:29:04;101538.47;;;11.16;36.49
64841;BME280;51307;52.162;7.560;2023-04-27T11:34:05;101538.06;;;11.10;32.86
64841;BME280;51307;52.162;7.560;2023-04-27T11:36:31;101539.34;;;11.06;33.05
64841;BME280;51307;52.162;7.560;2023-04-27T11:38:57;101544.78;;;11.24;33.85
64841;BME280;51307;52.162;7.560;2023-04-27T11:41:32;101536.06;;;11.13;33.37
64841;BME280;51307;52.162;7.560;2023-04-27T11:44:03;101539.50;;;11.05;33.79
64841;BME280;51307;52.162;7.560;2023-04-27T11:46:30;101536.91;;;11.23;35.65
64841;BME280;51307;52.162;7.560;2023-04-27T11:49:00;101540.41;;;11.33;34.31
64841;BME280;51307;52.162;7.560;2023-04-27T11:51:28;101538.28;;;11.27;34.54
64841;BME280;51307;52.162;7.560;2023-04-27T11:53:54;101531.06;;;11.37;34.71
64841;BME280;51307;52.162;7.560;2023-04-27T11:56:20;101540.34;;;11.43;35.29
64841;BME280;51307;52.162;7.560;2023-04-27T11:58:45;101532.56;;;11.50;33.70
64841;BME280;51307;52.162;7.560;2023-04-27T12:01:11;101536.22;;;11.49;36.14
64841;BME280;51307;52.162;7.560;2023-04-27T12:03:37;101542.41;;;11.59;35.51
64841;BME280;51307;52.162;7.560;2023-04-27T12:06:02;101531.50;;;11.60;32.72
64841;BME280;51307;52.162;7.560;2023-04-27T12:08:28;101541.50;;;11.68;34.10
64841;BME280;51307;52.162;7.560;2023-04-27T12:10:54;101536.06;;;11.50;32.95
64841;BME280;51307;52.162;7.560;2023-04-27T12:13:20;101532.00;;;11.74;34.55
64841;BME280;51307;52.162;7.560;2023-04-27T12:15:45;101533.47;;;11.68;33.96
64841;BME280;51307;52.162;7.560;2023-04-27T12:18:11;101529.31;;;11.56;31.96
64841;BME280;51307;52.162;7.560;2023-04-27T12:20:36;101526.97;;;11.71;34.46
64841;BME280;51307;52.162;7.560;2023-04-27T12:23:02;101520.31;;;11.75;34.44
64841;BME280;51307;52.162;7.560;2023-04-27T12:25:28;101521.53;;;11.81;33.16
64841;BME280;51307;52.162;7.560;2023-04-27T12:27:53;101520.31;;;11.75;33.64
64841;BME280;51307;52.162;7.560;2023-04-27T12:30:19;101521.28;;;11.74;33.90
64841;BME280;51307;52.162;7.560;2023-04-27T12:32:45;101517.06;;;11.71;33.68
64841;BME280;51307;52.162;7.560;2023-04-27T12:35:11;101511.25;;;11.76;33.68
64841;BME280;51307;52.162;7.560;2023-04-27T12:37:37;101507.72;;;11.75;33.76
64841;BME280;51307;52.162;7.560;2023-04-27T12:40:03;101517.31;;;11.78;33.88
64841;BME280;51307;52.162;7.560;2023-04-27T12:42:33;101508.78;;;11.37;32.59
64841;BME280;51307;52.162;7.560;2023-04-27T12:44:59;101507.56;;;11.59;31.92
64841;BME280;51307;52.162;7.560;2023-04-27T12:47:24;101511.13;;;11.77;34.00
64841;BME280;51307;52.162;7.560;2023-04-27T12:49:50;101509.09;;;11.80;33.71
64841;BME280;51307;52.162;7.560;2023-04-27T12:52:16;101507.41;;;11.88;33.39
64841;BME280;51307;52.162;7.560;2023-04-27T12:54:41;101510.84;;;11.99;34.74
64841;BME280;51307;52.162;7.560;2023-04-27T12:57:07;101504.34;;;12.01;32.60
64841;BME280;51307;52.162;7.560;2023-04-27T12:59:33;101513.53;;;11.99;32.90
64841;BME280;51307;52.162;7.560;2023-04-27T13:02:02;101513.84;;;11.96;32.60
64841;BME280;51307;52.162;7.560;2023-04-27T13:04:29;101507.41;;;12.06;33.71
64841;BME280;51307;52.162;7.560;2023-04-27T13:06:58;101508.00;;;12.00;34.99